Terminal Aerodrome Forecast
Issued by NWS

Home | Current Version | Previous Version | Text Only | Print | Product List | Glossary Off
Versions: 1 2 3 4 5 6 7 8 9 10 11 12 13 14

000
FTUS42 KMHX 171759
TAFISO
TAF
KISO 171759Z 1718/1818 36010KT P6SM VCSH SCT021 BKN030 OVC090
     FM171900 03009KT P6SM VCSH BKN070
     FM172100 04009KT P6SM BKN050
     FM180500 03006KT 5SM BR OVC004
     FM181500 01007KT P6SM BKN015
      AMD LTD TO CLD VIS AND WIND=

USA.gov is the U.S. government's official web portal to all federal, state and local government web resources and services.